SLCB/CBB METAR and TAF weather

Enter ICAO airport designator
Station Type Date Time Source
SLCB METAR 2021/05/13 12:00 UTC NOAA

SLCB 131200Z 00000KT 9999 BKN080 11/05 Q1026


Station Type Date Time Source
SLCB Decoded METAR 2021/05/13 12:00 UTC NOAA

Cochabamba, Bolivia (SLCB) 17-25S 066-11W 2570M
May 13, 2021 - 08:00 AM EDT / 2021.05.13 1200 UTC
Wind: Calm:0
Visibility: greater than 7 mile(s):0
Sky conditions: mostly cloudy
Temperature: 51 F (11 C)
Dew Point: 41 F (5 C)
Relative Humidity: 66%
Pressure (altimeter): 30.30 in. Hg (1026 hPa)
ob: SLCB 131200Z 00000KT 9999 BKN080 11/05 Q1026
cycle: 12

Station Type Date Time Source
SLCB TAF 2021/05/13 06:58 UTC NOAA

TAF SLCB 130450Z 1306/1406 00000KT 9999 NSC TX28/1319Z TN07/1311Z
TEMPO 1310/1312 3000 FU
BECMG 1315/1317 24010KT FEW036

Example: see airport list